sensor_id;sensor_type;location;lat;lon;timestamp;pressure;altitude;pressure_sealevel;temperature;humidity
51926;BME280;37952;51.938;15.480;2023-04-07T00:02:28;100076.46;;;7.57;40.67
51926;BME280;37952;51.938;15.480;2023-04-07T00:05:32;100074.17;;;7.57;40.69
51926;BME280;37952;51.938;15.480;2023-04-07T00:08:40;100074.53;;;7.57;40.67
51926;BME280;37952;51.938;15.480;2023-04-07T00:11:43;100071.06;;;7.56;40.63
51926;BME280;37952;51.938;15.480;2023-04-07T00:14:46;100069.02;;;7.55;40.85
51926;BME280;37952;51.938;15.480;2023-04-07T00:17:48;100068.64;;;7.52;41.02
51926;BME280;37952;51.938;15.480;2023-04-07T00:20:51;100066.54;;;7.47;41.35
51926;BME280;37952;51.938;15.480;2023-04-07T00:23:54;100071.25;;;7.44;41.52
51926;BME280;37952;51.938;15.480;2023-04-07T00:26:57;100066.44;;;7.41;41.65
51926;BME280;37952;51.938;15.480;2023-04-07T00:30:00;100068.52;;;7.38;41.82
51926;BME280;37952;51.938;15.480;2023-04-07T00:33:02;100068.54;;;7.33;42.09
51926;BME280;37952;51.938;15.480;2023-04-07T00:36:05;100063.09;;;7.29;42.18
51926;BME280;37952;51.938;15.480;2023-04-07T00:39:10;100062.65;;;7.27;42.23
51926;BME280;37952;51.938;15.480;2023-04-07T00:42:12;100058.35;;;7.25;42.22
51926;BME280;37952;51.938;15.480;2023-04-07T00:45:15;100060.58;;;7.22;42.24
51926;BME280;37952;51.938;15.480;2023-04-07T00:48:18;100055.74;;;7.16;42.28
51926;BME280;37952;51.938;15.480;2023-04-07T00:51:21;100053.71;;;7.10;42.31
51926;BME280;37952;51.938;15.480;2023-04-07T00:54:24;100052.27;;;7.07;42.30
51926;BME280;37952;51.938;15.480;2023-04-07T00:57:27;100049.80;;;7.02;42.38
51926;BME280;37952;51.938;15.480;2023-04-07T01:00:31;100046.52;;;6.97;42.42
51926;BME280;37952;51.938;15.480;2023-04-07T01:03:46;100042.67;;;6.93;42.54
51926;BME280;37952;51.938;15.480;2023-04-07T01:06:56;100043.46;;;6.90;42.61
51926;BME280;37952;51.938;15.480;2023-04-07T01:10:09;100047.73;;;6.89;42.61
51926;BME280;37952;51.938;15.480;2023-04-07T01:13:26;100046.57;;;6.87;42.65
51926;BME280;37952;51.938;15.480;2023-04-07T01:16:35;100040.20;;;6.84;42.70
51926;BME280;37952;51.938;15.480;2023-04-07T01:20:01;100041.60;;;6.80;42.76
51926;BME280;37952;51.938;15.480;2023-04-07T01:23:07;100039.45;;;6.77;42.83
51926;BME280;37952;51.938;15.480;2023-04-07T01:26:17;100037.63;;;6.74;42.84
51926;BME280;37952;51.938;15.480;2023-04-07T01:29:36;100037.17;;;6.72;42.95
51926;BME280;37952;51.938;15.480;2023-04-07T01:32:40;100036.34;;;6.71;42.98
51926;BME280;37952;51.938;15.480;2023-04-07T01:35:45;100037.09;;;6.70;42.77
51926;BME280;37952;51.938;15.480;2023-04-07T01:38:49;100036.98;;;6.69;42.93
51926;BME280;37952;51.938;15.480;2023-04-07T01:41:54;100039.29;;;6.68;42.98
51926;BME280;37952;51.938;15.480;2023-04-07T01:44:57;100041.09;;;6.66;43.04
51926;BME280;37952;51.938;15.480;2023-04-07T01:48:05;100034.33;;;6.65;43.14
51926;BME280;37952;51.938;15.480;2023-04-07T01:51:10;100032.21;;;6.65;43.11
51926;BME280;37952;51.938;15.480;2023-04-07T01:54:13;100027.98;;;6.66;43.27
51926;BME280;37952;51.938;15.480;2023-04-07T01:57:16;100030.95;;;6.66;43.15
51926;BME280;37952;51.938;15.480;2023-04-07T02:00:18;100032.90;;;6.65;43.22
51926;BME280;37952;51.938;15.480;2023-04-07T02:03:39;100029.02;;;6.66;43.16
51926;BME280;37952;51.938;15.480;2023-04-07T02:06:51;100027.66;;;6.65;43.27
51926;BME280;37952;51.938;15.480;2023-04-07T02:09:57;100019.27;;;6.60;43.26
51926;BME280;37952;51.938;15.480;2023-04-07T02:13:06;100032.54;;;6.65;43.17
51926;BME280;37952;51.938;15.480;2023-04-07T02:16:11;100024.49;;;6.65;43.14
51926;BME280;37952;51.938;15.480;2023-04-07T02:19:14;100025.19;;;6.65;43.20
51926;BME280;37952;51.938;15.480;2023-04-07T02:22:17;100022.39;;;6.65;43.23
51926;BME280;37952;51.938;15.480;2023-04-07T02:25:30;100019.04;;;6.66;43.28
51926;BME280;37952;51.938;15.480;2023-04-07T02:28:33;100020.75;;;6.67;43.34
51926;BME280;37952;51.938;15.480;2023-04-07T02:31:36;100013.36;;;6.68;43.29
51926;BME280;37952;51.938;15.480;2023-04-07T02:34:39;100016.27;;;6.69;43.29
51926;BME280;37952;51.938;15.480;2023-04-07T02:37:44;100012.93;;;6.70;43.41
51926;BME280;37952;51.938;15.480;2023-04-07T02:40:47;100012.22;;;6.70;43.49
51926;BME280;37952;51.938;15.480;2023-04-07T02:43:51;100005.08;;;6.69;43.54
51926;BME280;37952;51.938;15.480;2023-04-07T02:46:55;100006.38;;;6.67;43.65
51926;BME280;37952;51.938;15.480;2023-04-07T02:49:58;100005.05;;;6.65;43.82
51926;BME280;37952;51.938;15.480;2023-04-07T02:53:00;100005.80;;;6.64;43.96
51926;BME280;37952;51.938;15.480;2023-04-07T02:56:03;100002.48;;;6.64;43.98
51926;BME280;37952;51.938;15.480;2023-04-07T02:59:06;99998.45;;;6.64;44.04
51926;BME280;37952;51.938;15.480;2023-04-07T03:02:09;99996.91;;;6.63;44.12
51926;BME280;37952;51.938;15.480;2023-04-07T03:05:12;99995.91;;;6.61;44.17
51926;BME280;37952;51.938;15.480;2023-04-07T03:08:14;99994.19;;;6.61;44.28
51926;BME280;37952;51.938;15.480;2023-04-07T03:11:17;99995.05;;;6.61;44.47
51926;BME280;37952;51.938;15.480;2023-04-07T03:14:20;99994.20;;;6.61;44.46
51926;BME280;37952;51.938;15.480;2023-04-07T03:17:22;99987.60;;;6.59;44.42
51926;BME280;37952;51.938;15.480;2023-04-07T03:20:25;99985.61;;;6.57;44.44
51926;BME280;37952;51.938;15.480;2023-04-07T03:23:28;99983.16;;;6.57;44.60
51926;BME280;37952;51.938;15.480;2023-04-07T03:26:31;99980.90;;;6.56;44.72
51926;BME280;37952;51.938;15.480;2023-04-07T03:29:34;99976.70;;;6.56;44.72
51926;BME280;37952;51.938;15.480;2023-04-07T03:32:37;99978.14;;;6.55;44.92
51926;BME280;37952;51.938;15.480;2023-04-07T03:35:41;99971.86;;;6.54;45.02
51926;BME280;37952;51.938;15.480;2023-04-07T03:38:46;99968.59;;;6.53;45.27
51926;BME280;37952;51.938;15.480;2023-04-07T03:41:49;99968.38;;;6.54;45.37
51926;BME280;37952;51.938;15.480;2023-04-07T03:44:51;99963.83;;;6.54;45.49
51926;BME280;37952;51.938;15.480;2023-04-07T03:47:54;99964.48;;;6.55;45.53
51926;BME280;37952;51.938;15.480;2023-04-07T03:50:58;99963.23;;;6.56;45.62
51926;BME280;37952;51.938;15.480;2023-04-07T03:54:01;99965.68;;;6.56;45.61
51926;BME280;37952;51.938;15.480;2023-04-07T03:57:04;99967.73;;;6.57;45.90
51926;BME280;37952;51.938;15.480;2023-04-07T04:00:07;99966.64;;;6.58;45.84
51926;BME280;37952;51.938;15.480;2023-04-07T04:03:10;99968.88;;;6.59;46.17
51926;BME280;37952;51.938;15.480;2023-04-07T04:06:13;99969.60;;;6.58;45.97
51926;BME280;37952;51.938;15.480;2023-04-07T04:09:16;99967.50;;;6.59;46.05
51926;BME280;37952;51.938;15.480;2023-04-07T04:12:18;99969.97;;;6.58;46.08
51926;BME280;37952;51.938;15.480;2023-04-07T04:15:21;99966.69;;;6.57;46.18
51926;BME280;37952;51.938;15.480;2023-04-07T04:18:24;99965.52;;;6.55;46.36
51926;BME280;37952;51.938;15.480;2023-04-07T04:21:27;99962.22;;;6.54;46.43
51926;BME280;37952;51.938;15.480;2023-04-07T04:24:29;99965.58;;;6.54;46.51
51926;BME280;37952;51.938;15.480;2023-04-07T04:27:32;99967.56;;;6.52;46.69
51926;BME280;37952;51.938;15.480;2023-04-07T04:30:35;99970.95;;;6.51;46.70
51926;BME280;37952;51.938;15.480;2023-04-07T04:33:37;99975.04;;;6.49;46.83
51926;BME280;37952;51.938;15.480;2023-04-07T04:36:40;99975.22;;;6.49;46.97
51926;BME280;37952;51.938;15.480;2023-04-07T04:39:43;99972.94;;;6.49;47.14
51926;BME280;37952;51.938;15.480;2023-04-07T04:42:45;99971.70;;;6.49;47.09
51926;BME280;37952;51.938;15.480;2023-04-07T04:45:48;99968.78;;;6.48;47.22
51926;BME280;37952;51.938;15.480;2023-04-07T04:48:53;99966.54;;;6.47;47.28
51926;BME280;37952;51.938;15.480;2023-04-07T04:51:55;99962.72;;;6.46;47.29
51926;BME280;37952;51.938;15.480;2023-04-07T04:54:58;99966.21;;;6.47;47.19
51926;BME280;37952;51.938;15.480;2023-04-07T04:58:01;99963.76;;;6.46;47.29
51926;BME280;37952;51.938;15.480;2023-04-07T05:01:04;99964.09;;;6.47;47.39
51926;BME280;37952;51.938;15.480;2023-04-07T05:04:07;99965.47;;;6.48;47.31
51926;BME280;37952;51.938;15.480;2023-04-07T05:07:12;99958.12;;;6.47;47.41
51926;BME280;37952;51.938;15.480;2023-04-07T05:10:14;99953.73;;;6.47;47.43
51926;BME280;37952;51.938;15.480;2023-04-07T05:13:17;99951.63;;;6.48;47.54
51926;BME280;37952;51.938;15.480;2023-04-07T05:16:20;99954.98;;;6.47;47.57
51926;BME280;37952;51.938;15.480;2023-04-07T05:19:22;99954.20;;;6.49;47.79
51926;BME280;37952;51.938;15.480;2023-04-07T05:22:25;99953.13;;;6.50;47.78
51926;BME280;37952;51.938;15.480;2023-04-07T05:25:28;99952.77;;;6.50;47.70
51926;BME280;37952;51.938;15.480;2023-04-07T05:28:30;99954.77;;;6.53;47.81
51926;BME280;37952;51.938;15.480;2023-04-07T05:31:33;99955.73;;;6.55;47.81
51926;BME280;37952;51.938;15.480;2023-04-07T05:34:38;99958.13;;;6.56;47.82
51926;BME280;37952;51.938;15.480;2023-04-07T05:37:42;99958.97;;;6.57;47.89
51926;BME280;37952;51.938;15.480;2023-04-07T05:40:45;99957.89;;;6.58;47.94
51926;BME280;37952;51.938;15.480;2023-04-07T05:43:48;99958.05;;;6.58;47.80
51926;BME280;37952;51.938;15.480;2023-04-07T05:46:51;99962.09;;;6.58;47.87
51926;BME280;37952;51.938;15.480;2023-04-07T05:49:54;99964.21;;;6.57;47.99
51926;BME280;37952;51.938;15.480;2023-04-07T05:52:57;99967.21;;;6.57;48.01
51926;BME280;37952;51.938;15.480;2023-04-07T05:56:00;99963.41;;;6.56;47.96
51926;BME280;37952;51.938;15.480;2023-04-07T05:59:02;99965.34;;;6.55;47.86
51926;BME280;37952;51.938;15.480;2023-04-07T06:02:06;99968.25;;;6.57;47.93
51926;BME280;37952;51.938;15.480;2023-04-07T06:05:09;99966.85;;;6.57;47.95
51926;BME280;37952;51.938;15.480;2023-04-07T06:08:12;99969.07;;;6.59;47.96
51926;BME280;37952;51.938;15.480;2023-04-07T06:11:14;99970.27;;;6.59;47.95
51926;BME280;37952;51.938;15.480;2023-04-07T06:14:17;99974.75;;;6.61;48.01
51926;BME280;37952;51.938;15.480;2023-04-07T06:17:20;99972.12;;;6.61;47.97
51926;BME280;37952;51.938;15.480;2023-04-07T06:20:22;99974.38;;;6.61;48.00
51926;BME280;37952;51.938;15.480;2023-04-07T06:23:25;99977.84;;;6.62;48.04
51926;BME280;37952;51.938;15.480;2023-04-07T06:26:28;99976.04;;;6.63;47.98
51926;BME280;37952;51.938;15.480;2023-04-07T06:29:32;99975.41;;;6.66;48.04
51926;BME280;37952;51.938;15.480;2023-04-07T06:32:35;99973.81;;;6.67;48.01
51926;BME280;37952;51.938;15.480;2023-04-07T06:35:38;99976.85;;;6.70;47.91
51926;BME280;37952;51.938;15.480;2023-04-07T06:38:44;99975.69;;;6.72;47.93
51926;BME280;37952;51.938;15.480;2023-04-07T06:41:47;99976.85;;;6.74;48.07
51926;BME280;37952;51.938;15.480;2023-04-07T06:44:49;99972.62;;;6.74;48.13
51926;BME280;37952;51.938;15.480;2023-04-07T06:47:52;99967.23;;;6.78;48.08
51926;BME280;37952;51.938;15.480;2023-04-07T06:50:55;99963.38;;;6.74;48.02
51926;BME280;37952;51.938;15.480;2023-04-07T06:53:57;99972.02;;;6.81;48.06
51926;BME280;37952;51.938;15.480;2023-04-07T06:57:00;99970.75;;;6.82;48.18
51926;BME280;37952;51.938;15.480;2023-04-07T07:00:03;99975.41;;;6.83;48.30
51926;BME280;37952;51.938;15.480;2023-04-07T07:03:09;99978.25;;;6.83;48.29
51926;BME280;37952;51.938;15.480;2023-04-07T07:06:12;99981.61;;;6.82;48.50
51926;BME280;37952;51.938;15.480;2023-04-07T07:09:15;99980.08;;;6.81;48.76
51926;BME280;37952;51.938;15.480;2023-04-07T07:12:17;99979.96;;;6.84;48.80
51926;BME280;37952;51.938;15.480;2023-04-07T07:15:20;99953.63;;;6.68;49.02
51926;BME280;37952;51.938;15.480;2023-04-07T07:18:23;99981.41;;;6.82;49.24
51926;BME280;37952;51.938;15.480;2023-04-07T07:21:26;99982.16;;;6.77;49.38
51926;BME280;37952;51.938;15.480;2023-04-07T07:24:29;99984.10;;;6.72;49.64
51926;BME280;37952;51.938;15.480;2023-04-07T07:27:32;99985.06;;;6.70;49.81
51926;BME280;37952;51.938;15.480;2023-04-07T07:30:35;99991.14;;;6.67;49.94
51926;BME280;37952;51.938;15.480;2023-04-07T07:33:39;99994.83;;;6.62;50.14
51926;BME280;37952;51.938;15.480;2023-04-07T07:36:42;99996.34;;;6.60;50.25
51926;BME280;37952;51.938;15.480;2023-04-07T07:39:45;99999.27;;;6.56;50.31
51926;BME280;37952;51.938;15.480;2023-04-07T07:42:48;99999.79;;;6.57;50.47
51926;BME280;37952;51.938;15.480;2023-04-07T07:45:50;100000.58;;;6.59;50.72
51926;BME280;37952;51.938;15.480;2023-04-07T07:48:53;100002.72;;;6.58;50.89
51926;BME280;37952;51.938;15.480;2023-04-07T07:51:55;100009.71;;;6.58;51.16
51926;BME280;37952;51.938;15.480;2023-04-07T07:54:58;100011.85;;;6.57;51.29
51926;BME280;37952;51.938;15.480;2023-04-07T07:58:01;100015.65;;;6.59;51.33
51926;BME280;37952;51.938;15.480;2023-04-07T08:01:04;100019.49;;;6.59;51.46
51926;BME280;37952;51.938;15.480;2023-04-07T08:04:07;100019.14;;;6.63;51.38
51926;BME280;37952;51.938;15.480;2023-04-07T08:07:10;100020.54;;;6.64;51.62
51926;BME280;37952;51.938;15.480;2023-04-07T08:10:14;100018.15;;;6.62;51.79
51926;BME280;37952;51.938;15.480;2023-04-07T08:13:17;100014.52;;;6.61;51.84
51926;BME280;37952;51.938;15.480;2023-04-07T08:16:20;100015.23;;;6.61;51.94
51926;BME280;37952;51.938;15.480;2023-04-07T08:19:23;100011.36;;;6.61;51.95
51926;BME280;37952;51.938;15.480;2023-04-07T08:22:26;100012.13;;;6.55;52.06
51926;BME280;37952;51.938;15.480;2023-04-07T08:25:32;100011.77;;;6.50;52.42
51926;BME280;37952;51.938;15.480;2023-04-07T08:28:34;100008.64;;;6.49;52.49
51926;BME280;37952;51.938;15.480;2023-04-07T08:31:38;100007.61;;;6.49;52.48
51926;BME280;37952;51.938;15.480;2023-04-07T08:34:40;100009.02;;;6.49;52.57
51926;BME280;37952;51.938;15.480;2023-04-07T08:37:43;100013.00;;;6.50;52.74
51926;BME280;37952;51.938;15.480;2023-04-07T08:40:48;100018.98;;;6.45;53.26
51926;BME280;37952;51.938;15.480;2023-04-07T08:43:56;100013.40;;;6.44;52.92
51926;BME280;37952;51.938;15.480;2023-04-07T08:47:02;100010.34;;;6.42;53.12
51926;BME280;37952;51.938;15.480;2023-04-07T08:50:10;100007.70;;;6.38;53.47
51926;BME280;37952;51.938;15.480;2023-04-07T08:53:15;100000.19;;;6.37;53.04
51926;BME280;37952;51.938;15.480;2023-04-07T08:56:20;99998.35;;;6.40;53.40
51926;BME280;37952;51.938;15.480;2023-04-07T08:59:25;99997.19;;;6.43;53.34
51926;BME280;37952;51.938;15.480;2023-04-07T09:02:32;100005.95;;;6.29;54.06
51926;BME280;37952;51.938;15.480;2023-04-07T09:05:35;100008.86;;;6.12;53.91
51926;BME280;37952;51.938;15.480;2023-04-07T09:08:38;100008.28;;;5.94;54.74
51926;BME280;37952;51.938;15.480;2023-04-07T09:11:47;99999.52;;;5.89;54.34
51926;BME280;37952;51.938;15.480;2023-04-07T09:14:49;100000.45;;;5.93;54.37
51926;BME280;37952;51.938;15.480;2023-04-07T09:17:52;100005.85;;;5.89;54.98
51926;BME280;37952;51.938;15.480;2023-04-07T09:21:03;100001.66;;;5.84;54.29
51926;BME280;37952;51.938;15.480;2023-04-07T09:24:34;100002.73;;;5.83;54.50
51926;BME280;37952;51.938;15.480;2023-04-07T09:27:37;100000.56;;;5.81;54.55
51926;BME280;37952;51.938;15.480;2023-04-07T09:30:51;100003.44;;;5.73;54.29
51926;BME280;37952;51.938;15.480;2023-04-07T09:33:55;100007.23;;;5.60;54.85
51926;BME280;37952;51.938;15.480;2023-04-07T09:36:58;100004.69;;;5.58;54.62
51926;BME280;37952;51.938;15.480;2023-04-07T09:40:01;100001.46;;;5.56;55.03
51926;BME280;37952;51.938;15.480;2023-04-07T09:43:04;99996.76;;;5.55;55.28
51926;BME280;37952;51.938;15.480;2023-04-07T09:46:12;99995.77;;;5.58;55.00
51926;BME280;37952;51.938;15.480;2023-04-07T09:49:16;99993.45;;;5.50;55.33
51926;BME280;37952;51.938;15.480;2023-04-07T09:52:25;99997.21;;;5.47;55.48
51926;BME280;37952;51.938;15.480;2023-04-07T09:55:48;100001.59;;;5.37;56.76
51926;BME280;37952;51.938;15.480;2023-04-07T09:58:51;100007.88;;;5.36;55.96
51926;BME280;37952;51.938;15.480;2023-04-07T10:01:54;100003.80;;;5.38;55.58
51926;BME280;37952;51.938;15.480;2023-04-07T10:04:58;100006.73;;;5.45;55.54
51926;BME280;37952;51.938;15.480;2023-04-07T10:08:01;100008.54;;;5.53;55.48
51926;BME280;37952;51.938;15.480;2023-04-07T10:11:09;100011.72;;;5.47;56.15
51926;BME280;37952;51.938;15.480;2023-04-07T10:14:12;100015.70;;;5.38;55.94
51926;BME280;37952;51.938;15.480;2023-04-07T10:17:15;100013.79;;;5.38;57.09
51926;BME280;37952;51.938;15.480;2023-04-07T10:20:21;100016.27;;;5.32;58.11
51926;BME280;37952;51.938;15.480;2023-04-07T10:23:33;100013.91;;;5.28;56.99
51926;BME280;37952;51.938;15.480;2023-04-07T10:26:39;100015.80;;;5.35;57.95
51926;BME280;37952;51.938;15.480;2023-04-07T10:29:45;100017.05;;;5.39;56.85
51926;BME280;37952;51.938;15.480;2023-04-07T10:32:59;100014.45;;;5.44;57.11
51926;BME280;37952;51.938;15.480;2023-04-07T10:49:07;100018.39;;;5.36;57.54
51926;BME280;37952;51.938;15.480;2023-04-07T10:58:34;100021.65;;;5.12;60.27
51926;BME280;37952;51.938;15.480;2023-04-07T11:01:37;100020.99;;;5.16;58.91
51926;BME280;37952;51.938;15.480;2023-04-07T11:04:42;100021.80;;;5.23;58.75
51926;BME280;37952;51.938;15.480;2023-04-07T11:07:47;100024.11;;;5.22;58.59
51926;BME280;37952;51.938;15.480;2023-04-07T11:10:51;100021.98;;;5.23;58.67
51926;BME280;37952;51.938;15.480;2023-04-07T11:13:54;100023.58;;;5.28;58.49
51926;BME280;37952;51.938;15.480;2023-04-07T11:16:57;100021.91;;;5.35;58.22
51926;BME280;37952;51.938;15.480;2023-04-07T11:20:00;100021.83;;;5.43;58.56
51926;BME280;37952;51.938;15.480;2023-04-07T11:23:03;100019.28;;;5.40;58.55
51926;BME280;37952;51.938;15.480;2023-04-07T11:26:07;100016.13;;;5.36;58.70
51926;BME280;37952;51.938;15.480;2023-04-07T11:29:10;100017.47;;;5.37;58.69
51926;BME280;37952;51.938;15.480;2023-04-07T11:32:14;100015.93;;;5.37;59.85
51926;BME280;37952;51.938;15.480;2023-04-07T11:35:17;100018.48;;;5.33;59.91
51926;BME280;37952;51.938;15.480;2023-04-07T11:38:20;100015.61;;;5.35;59.55
51926;BME280;37952;51.938;15.480;2023-04-07T11:41:28;100016.92;;;5.48;59.08
51926;BME280;37952;51.938;15.480;2023-04-07T11:44:32;100015.16;;;5.59;58.83
51926;BME280;37952;51.938;15.480;2023-04-07T11:47:36;100015.91;;;5.62;60.33
51926;BME280;37952;51.938;15.480;2023-04-07T11:50:40;100011.11;;;5.54;59.75
51926;BME280;37952;51.938;15.480;2023-04-07T11:53:45;100012.36;;;5.49;61.16
51926;BME280;37952;51.938;15.480;2023-04-07T11:56:49;100017.30;;;5.33;61.57
51926;BME280;37952;51.938;15.480;2023-04-07T12:00:06;100018.41;;;5.20;61.45
51926;BME280;37952;51.938;15.480;2023-04-07T12:03:11;100016.11;;;5.05;61.37
51926;BME280;37952;51.938;15.480;2023-04-07T12:06:34;100008.94;;;5.11;61.69
51926;BME280;37952;51.938;15.480;2023-04-07T12:09:54;100007.69;;;5.12;61.34
51926;BME280;37952;51.938;15.480;2023-04-07T12:12:56;100004.38;;;5.21;61.85
51926;BME280;37952;51.938;15.480;2023-04-07T12:16:01;100014.05;;;5.19;63.19
51926;BME280;37952;51.938;15.480;2023-04-07T12:19:09;100012.58;;;4.90;66.18
51926;BME280;37952;51.938;15.480;2023-04-07T12:22:12;100004.98;;;4.72;64.90
51926;BME280;37952;51.938;15.480;2023-04-07T12:25:18;100004.61;;;4.83;63.80
51926;BME280;37952;51.938;15.480;2023-04-07T12:28:21;100005.27;;;4.95;64.19
51926;BME280;37952;51.938;15.480;2023-04-07T12:31:23;100004.77;;;4.99;64.84
51926;BME280;37952;51.938;15.480;2023-04-07T12:34:26;100004.79;;;4.94;64.18
51926;BME280;37952;51.938;15.480;2023-04-07T12:37:29;99997.27;;;4.94;65.11
51926;BME280;37952;51.938;15.480;2023-04-07T12:40:33;100000.92;;;4.89;65.33
51926;BME280;37952;51.938;15.480;2023-04-07T12:43:36;99994.16;;;4.92;64.22
51926;BME280;37952;51.938;15.480;2023-04-07T12:46:39;99993.95;;;5.10;64.14
51926;BME280;37952;51.938;15.480;2023-04-07T12:49:41;99996.98;;;5.18;65.19
51926;BME280;37952;51.938;15.480;2023-04-07T12:52:45;99997.79;;;5.15;64.47
51926;BME280;37952;51.938;15.480;2023-04-07T12:55:48;99995.27;;;5.17;65.27
51926;BME280;37952;51.938;15.480;2023-04-07T12:58:52;99997.81;;;5.14;65.08
51926;BME280;37952;51.938;15.480;2023-04-07T13:01:54;99995.78;;;5.18;64.12
51926;BME280;37952;51.938;15.480;2023-04-07T13:04:57;99995.25;;;5.22;64.16
51926;BME280;37952;51.938;15.480;2023-04-07T13:08:00;99997.09;;;5.30;64.80
51926;BME280;37952;51.938;15.480;2023-04-07T13:11:03;100002.09;;;5.27;64.40
51926;BME280;37952;51.938;15.480;2023-04-07T13:14:06;99997.55;;;5.27;64.14
51926;BME280;37952;51.938;15.480;2023-04-07T13:17:09;99997.59;;;5.26;65.48
51926;BME280;37952;51.938;15.480;2023-04-07T13:20:14;99999.05;;;5.19;65.50
51926;BME280;37952;51.938;15.480;2023-04-07T13:23:22;99996.20;;;5.10;65.50
51926;BME280;37952;51.938;15.480;2023-04-07T13:26:24;99992.43;;;5.08;66.88
51926;BME280;37952;51.938;15.480;2023-04-07T13:29:31;99991.42;;;5.01;68.84
51926;BME280;37952;51.938;15.480;2023-04-07T13:32:52;99986.40;;;5.06;68.57
51926;BME280;37952;51.938;15.480;2023-04-07T13:35:55;99981.90;;;5.20;66.62
51926;BME280;37952;51.938;15.480;2023-04-07T13:38:58;99986.02;;;5.37;66.23
51926;BME280;37952;51.938;15.480;2023-04-07T13:42:04;99983.64;;;5.36;66.81
51926;BME280;37952;51.938;15.480;2023-04-07T13:45:08;99978.30;;;5.23;67.29
51926;BME280;37952;51.938;15.480;2023-04-07T13:48:11;99978.22;;;5.20;67.31
51926;BME280;37952;51.938;15.480;2023-04-07T13:51:13;99980.36;;;5.24;66.37
51926;BME280;37952;51.938;15.480;2023-04-07T13:54:16;99977.25;;;5.27;66.43
51926;BME280;37952;51.938;15.480;2023-04-07T13:57:20;99972.84;;;5.29;66.43
51926;BME280;37952;51.938;15.480;2023-04-07T14:00:22;99972.29;;;5.30;67.05
51926;BME280;37952;51.938;15.480;2023-04-07T14:03:26;99972.77;;;5.26;67.65
51926;BME280;37952;51.938;15.480;2023-04-07T14:06:30;99973.48;;;5.20;66.98
51926;BME280;37952;51.938;15.480;2023-04-07T14:09:33;99969.00;;;5.19;68.43
51926;BME280;37952;51.938;15.480;2023-04-07T14:12:35;99974.16;;;5.16;68.01
51926;BME280;37952;51.938;15.480;2023-04-07T14:15:38;99959.69;;;5.05;68.40
51926;BME280;37952;51.938;15.480;2023-04-07T14:18:41;99967.69;;;5.11;67.73
51926;BME280;37952;51.938;15.480;2023-04-07T14:21:44;99967.98;;;5.08;67.87
51926;BME280;37952;51.938;15.480;2023-04-07T14:24:47;99965.13;;;5.04;69.69
51926;BME280;37952;51.938;15.480;2023-04-07T14:27:51;99966.89;;;4.88;71.51
51926;BME280;37952;51.938;15.480;2023-04-07T14:30:54;99965.33;;;4.83;70.49
51926;BME280;37952;51.938;15.480;2023-04-07T14:33:57;99963.30;;;4.86;69.65
51926;BME280;37952;51.938;15.480;2023-04-07T14:36:59;99966.07;;;4.81;71.50
51926;BME280;37952;51.938;15.480;2023-04-07T14:40:03;99965.88;;;4.77;71.76
51926;BME280;37952;51.938;15.480;2023-04-07T14:43:07;99967.75;;;4.67;72.52
51926;BME280;37952;51.938;15.480;2023-04-07T14:46:11;99963.69;;;4.74;71.25
51926;BME280;37952;51.938;15.480;2023-04-07T14:49:34;99966.44;;;4.81;71.46
51926;BME280;37952;51.938;15.480;2023-04-07T14:52:37;99972.44;;;4.74;72.27
51926;BME280;37952;51.938;15.480;2023-04-07T14:55:40;99971.05;;;4.79;71.34
51926;BME280;37952;51.938;15.480;2023-04-07T14:58:43;99969.08;;;4.85;71.81
51926;BME280;37952;51.938;15.480;2023-04-07T15:02:03;99971.35;;;4.90;70.68
51926;BME280;37952;51.938;15.480;2023-04-07T15:05:07;99972.55;;;5.01;69.73
51926;BME280;37952;51.938;15.480;2023-04-07T15:08:10;99966.40;;;5.02;70.12
51926;BME280;37952;51.938;15.480;2023-04-07T15:11:12;99968.41;;;5.00;70.12
51926;BME280;37952;51.938;15.480;2023-04-07T15:14:15;99966.45;;;4.91;71.06
51926;BME280;37952;51.938;15.480;2023-04-07T15:17:18;99968.55;;;4.96;70.02
51926;BME280;37952;51.938;15.480;2023-04-07T15:20:29;99965.58;;;4.91;70.87
51926;BME280;37952;51.938;15.480;2023-04-07T15:23:32;99968.42;;;4.79;72.63
51926;BME280;37952;51.938;15.480;2023-04-07T15:26:34;99967.95;;;4.72;73.11
51926;BME280;37952;51.938;15.480;2023-04-07T15:29:37;99966.30;;;4.69;74.29
51926;BME280;37952;51.938;15.480;2023-04-07T15:32:40;99968.95;;;4.68;73.50
51926;BME280;37952;51.938;15.480;2023-04-07T15:35:43;99965.66;;;4.77;72.56
51926;BME280;37952;51.938;15.480;2023-04-07T15:38:46;99965.61;;;4.85;72.32
51926;BME280;37952;51.938;15.480;2023-04-07T15:41:48;99962.80;;;4.90;72.81
51926;BME280;37952;51.938;15.480;2023-04-07T15:44:51;99963.77;;;4.93;72.93
51926;BME280;37952;51.938;15.480;2023-04-07T15:47:54;99960.83;;;4.92;72.05
51926;BME280;37952;51.938;15.480;2023-04-07T15:50:57;99965.06;;;4.96;71.28
51926;BME280;37952;51.938;15.480;2023-04-07T15:53:59;99964.89;;;5.01;71.45
51926;BME280;37952;51.938;15.480;2023-04-07T15:57:02;99964.13;;;5.03;71.24
51926;BME280;37952;51.938;15.480;2023-04-07T16:00:05;99963.41;;;5.03;72.31
51926;BME280;37952;51.938;15.480;2023-04-07T16:03:08;99961.68;;;5.03;71.40
51926;BME280;37952;51.938;15.480;2023-04-07T16:06:12;99962.96;;;5.07;71.53
51926;BME280;37952;51.938;15.480;2023-04-07T16:09:15;99967.10;;;5.13;71.09
51926;BME280;37952;51.938;15.480;2023-04-07T16:12:20;99968.30;;;5.18;70.67
51926;BME280;37952;51.938;15.480;2023-04-07T16:15:23;99971.80;;;5.23;70.60
51926;BME280;37952;51.938;15.480;2023-04-07T16:18:41;99974.81;;;5.23;70.93
51926;BME280;37952;51.938;15.480;2023-04-07T16:21:44;99974.77;;;5.18;71.35
51926;BME280;37952;51.938;15.480;2023-04-07T16:24:47;99972.66;;;5.19;71.10
51926;BME280;37952;51.938;15.480;2023-04-07T16:27:51;99977.64;;;5.26;70.85
51926;BME280;37952;51.938;15.480;2023-04-07T16:30:54;99982.60;;;5.30;70.44